createdAt,value
2019-04-28T00:01:55.809Z,101393.47
2019-04-28T00:04:24.936Z,101391.38
2019-04-28T00:06:54.041Z,101391.38
2019-04-28T00:09:23.240Z,101391.78
2019-04-28T00:11:52.369Z,101391.25
2019-04-28T00:14:22.049Z,101390.72
2019-04-28T00:16:51.165Z,101387.50
2019-04-28T00:19:22.210Z,101384.63
2019-04-28T00:21:52.960Z,101387.53
2019-04-28T00:24:31.257Z,101392.39
2019-04-28T00:27:02.007Z,101400.31
2019-04-28T00:29:38.708Z,101401.66
2019-04-28T00:32:02.171Z,101398.91
2019-04-28T00:34:31.285Z,101401.59
2019-04-28T00:37:04.487Z,101402.87
2019-04-28T00:39:33.609Z,101401.00
2019-04-28T00:42:03.384Z,101396.97
2019-04-28T00:44:31.840Z,101406.77
2019-04-28T00:47:01.265Z,101393.88
2019-04-28T00:49:48.778Z,101402.34
2019-04-28T00:52:18.738Z,101402.34
2019-04-28T00:54:48.590Z,101389.80
2019-04-28T00:57:16.959Z,101400.46
2019-04-28T00:59:56.849Z,101395.09
2019-04-28T01:02:18.765Z,101390.53
2019-04-28T01:04:47.876Z,101395.50
2019-04-28T01:07:17.000Z,101397.72
2019-04-28T01:09:46.098Z,101398.59
2019-04-28T01:12:15.275Z,101410.13
2019-04-28T01:14:44.400Z,101406.37
2019-04-28T01:17:27.172Z,101410.28
2019-04-28T01:20:00.542Z,101407.94
2019-04-28T01:22:30.062Z,101410.15
2019-04-28T01:24:59.667Z,101415.52
2019-04-28T01:27:30.535Z,101419.55
2019-04-28T01:30:07.901Z,101423.10
2019-04-28T01:32:40.032Z,101416.39
2019-04-28T01:35:09.565Z,101424.17
2019-04-28T01:37:40.605Z,101422.02
2019-04-28T01:40:09.985Z,101414.62
2019-04-28T01:42:41.079Z,101410.80
2019-04-28T01:45:10.595Z,101412.27
2019-04-28T01:47:40.480Z,101409.71
2019-04-28T01:50:10.185Z,101418.83
2019-04-28T01:52:40.105Z,101413.55
2019-04-28T01:55:10.134Z,101421.27
2019-04-28T01:57:40.018Z,101423.20
2019-04-28T02:00:22.250Z,101420.05
2019-04-28T02:02:41.095Z,101419.64
2019-04-28T02:05:10.356Z,101417.95
2019-04-28T02:07:40.710Z,101412.44
2019-04-28T02:10:10.321Z,101409.44
2019-04-28T02:12:40.330Z,101413.59
2019-04-28T02:15:10.510Z,101418.27
2019-04-28T02:17:40.248Z,101422.88
2019-04-28T02:20:10.364Z,101426.56
2019-04-28T02:22:56.381Z,101431.11
2019-04-28T02:25:25.494Z,101432.98
2019-04-28T02:27:57.069Z,101437.41
2019-04-28T02:30:41.154Z,101448.95
2019-04-28T02:32:56.275Z,101440.09
2019-04-28T02:35:26.950Z,101441.93
2019-04-28T02:37:56.089Z,101442.86
2019-04-28T02:40:25.188Z,101446.48
2019-04-28T02:42:54.286Z,101439.77
2019-04-28T02:45:23.412Z,101448.63
2019-04-28T02:47:54.166Z,101447.73
2019-04-28T02:50:27.664Z,101448.63
2019-04-28T02:53:01.842Z,101450.50
2019-04-28T02:55:32.000Z,101455.45
2019-04-28T02:58:01.501Z,101445.73
2019-04-28T03:00:31.707Z,101447.13
2019-04-28T03:03:01.607Z,101451.39
2019-04-28T03:05:33.383Z,101450.28
2019-04-28T03:08:01.724Z,101455.84
2019-04-28T03:10:31.400Z,101450.42
2019-04-28T03:13:01.404Z,101447.19
2019-04-28T03:15:30.804Z,101445.61
2019-04-28T03:18:01.742Z,101441.81
2019-04-28T03:20:30.975Z,101441.11
2019-04-28T03:23:01.029Z,101438.86
2019-04-28T03:25:33.536Z,101434.41
2019-04-28T03:28:13.415Z,101433.08
2019-04-28T03:31:06.564Z,101437.58
2019-04-28T03:33:34.433Z,101432.63
2019-04-28T03:36:07.023Z,101432.22
2019-04-28T03:38:32.901Z,101427.27
2019-04-28T03:41:02.011Z,101426.45
2019-04-28T03:43:31.120Z,101422.95
2019-04-28T03:46:13.942Z,101426.56
2019-04-28T03:48:43.223Z,101431.98
2019-04-28T03:51:13.400Z,101438.21
2019-04-28T03:53:42.838Z,101444.50
2019-04-28T03:56:11.945Z,101447.19
2019-04-28T03:58:43.297Z,101450.79
2019-04-28T04:01:12.429Z,101458.83
2019-04-28T04:03:41.984Z,101465.06
2019-04-28T04:06:11.254Z,101466.75
2019-04-28T04:08:40.960Z,101468.61
2019-04-28T04:11:13.899Z,101475.78
2019-04-28T04:13:44.610Z,101470.53
2019-04-28T04:16:15.661Z,101468.07
2019-04-28T04:18:52.968Z,101469.65
2019-04-28T04:21:21.451Z,101478.52
2019-04-28T04:23:51.084Z,101473.56
2019-04-28T04:26:21.351Z,101479.28
2019-04-28T04:28:51.703Z,101479.50
2019-04-28T04:31:20.912Z,101483.31
2019-04-28T04:33:50.730Z,101489.79
2019-04-28T04:36:21.104Z,101489.95
2019-04-28T04:38:51.350Z,101492.83
2019-04-28T04:41:21.544Z,101498.37
2019-04-28T04:43:51.280Z,101497.14
2019-04-28T04:46:22.757Z,101504.65
2019-04-28T04:48:52.139Z,101499.00
2019-04-28T04:51:21.752Z,101505.73
2019-04-28T04:53:51.605Z,101505.21
2019-04-28T04:56:21.368Z,101510.22
2019-04-28T04:58:50.930Z,101512.60
2019-04-28T05:01:36.497Z,101521.70
2019-04-28T05:04:07.243Z,101531.80
2019-04-28T05:06:41.494Z,101534.06
2019-04-28T05:09:11.341Z,101527.93
2019-04-28T05:11:40.522Z,101540.39
2019-04-28T05:14:11.692Z,101539.92
2019-04-28T05:16:40.753Z,101546.52
2019-04-28T05:19:10.360Z,101544.66
2019-04-28T05:21:40.309Z,101546.37
2019-04-28T05:27:01.247Z,101547.95
2019-04-28T05:29:30.726Z,101549.66
2019-04-28T05:32:03.377Z,101555.42
2019-04-28T05:34:30.795Z,101554.81
2019-04-28T05:37:00.668Z,101553.20
2019-04-28T05:39:30.171Z,101553.41
2019-04-28T05:42:00.838Z,101562.11
2019-04-28T05:44:31.997Z,101558.34
2019-04-28T05:47:00.939Z,101563.16
2019-04-28T05:49:40.537Z,101567.44
2019-04-28T05:52:27.420Z,101565.37
2019-04-28T05:55:04.011Z,101571.38
2019-04-28T05:57:34.761Z,101572.75
2019-04-28T06:00:19.745Z,101570.23
2019-04-28T06:02:57.811Z,101576.20
2019-04-28T06:05:27.634Z,101577.23
2019-04-28T06:08:10.498Z,101577.48
2019-04-28T06:13:40.182Z,101581.11
2019-04-28T06:16:09.550Z,101588.73
2019-04-28T06:18:47.089Z,101584.24
2019-04-28T06:21:22.451Z,101586.43
2019-04-28T06:24:08.796Z,101592.44
2019-04-28T06:26:37.299Z,101595.33
2019-04-28T06:29:06.434Z,101594.75
2019-04-28T06:31:35.541Z,101602.36
2019-04-28T06:34:04.673Z,101602.02
2019-04-28T06:36:33.812Z,101603.93
2019-04-28T06:39:03.900Z,101600.93
2019-04-28T06:41:45.333Z,101610.05
2019-04-28T06:44:14.399Z,101606.98
2019-04-28T06:46:43.523Z,101610.59
2019-04-28T06:49:12.631Z,101610.08
2019-04-28T06:51:42.201Z,101612.87
2019-04-28T06:54:11.355Z,101619.34
2019-04-28T06:56:40.741Z,101617.06
2019-04-28T06:59:10.373Z,101619.61
2019-04-28T07:01:39.568Z,101625.09
2019-04-28T07:04:08.699Z,101630.01
2019-04-28T07:06:43.669Z,101628.53
2019-04-28T07:09:12.895Z,101633.30
2019-04-28T07:12:36.031Z,101635.92
2019-04-28T07:14:56.076Z,101641.88
2019-04-28T07:17:32.463Z,101632.45
2019-04-28T07:20:05.904Z,101637.59
2019-04-28T07:22:35.020Z,101643.08
2019-04-28T07:25:05.283Z,101643.50
2019-04-28T07:27:34.425Z,101634.90
2019-04-28T07:30:05.276Z,101644.16
2019-04-28T07:32:34.394Z,101638.92
2019-04-28T07:35:04.794Z,101637.58
2019-04-28T07:37:48.759Z,101643.48
2019-04-28T07:40:27.909Z,101638.66
2019-04-28T07:43:04.414Z,101646.42
2019-04-28T07:45:39.890Z,101647.63
2019-04-28T07:48:14.982Z,101653.56
2019-04-28T07:50:44.087Z,101659.20
2019-04-28T07:53:14.859Z,101653.95
2019-04-28T07:55:47.529Z,101662.71
2019-04-28T07:58:16.918Z,101671.66
2019-04-28T08:00:48.685Z,101670.87
2019-04-28T08:03:16.942Z,101679.58
2019-04-28T08:05:46.076Z,101684.06
2019-04-28T08:08:36.233Z,101674.98
2019-04-28T08:11:09.622Z,101679.19
2019-04-28T08:13:38.896Z,101684.44
2019-04-28T08:16:08.053Z,101685.23
2019-04-28T08:18:37.210Z,101696.55
2019-04-28T08:21:06.342Z,101696.48
2019-04-28T08:26:18.561Z,101695.81
2019-04-28T08:28:52.829Z,101690.81
2019-04-28T08:31:23.556Z,101693.75
2019-04-28T08:36:50.733Z,101705.41
2019-04-28T08:39:19.976Z,101698.02
2019-04-28T08:41:51.268Z,101703.81
2019-04-28T08:44:20.887Z,101708.05
2019-04-28T08:47:04.337Z,101705.45
2019-04-28T08:49:36.140Z,101702.06
2019-04-28T08:52:05.855Z,101710.95
2019-04-28T08:54:34.260Z,101713.73
2019-04-28T08:57:03.328Z,101715.92
2019-04-28T08:59:32.793Z,101713.96
2019-04-28T09:02:10.664Z,101714.15
2019-04-28T09:04:39.481Z,101721.78
2019-04-28T09:07:08.751Z,101728.50
2019-04-28T09:12:45.050Z,101727.06
2019-04-28T09:15:20.222Z,101732.95
2019-04-28T09:17:53.227Z,101733.16
2019-04-28T09:20:29.461Z,101729.55
2019-04-28T09:23:00.393Z,101741.64
2019-04-28T09:25:37.073Z,101745.44
2019-04-28T09:28:06.010Z,101746.22
2019-04-28T09:30:52.920Z,101743.91
2019-04-28T09:33:41.759Z,101745.20
2019-04-28T09:36:11.090Z,101743.91
2019-04-28T09:38:40.321Z,101752.99
2019-04-28T09:41:09.456Z,101751.64
2019-04-28T09:44:01.966Z,101753.88
2019-04-28T09:46:33.366Z,101751.30
2019-04-28T09:49:16.429Z,101748.84
2019-04-28T09:52:00.524Z,101755.71
2019-04-28T09:54:27.065Z,101759.95
2019-04-28T09:57:14.138Z,101758.80
2019-04-28T10:00:20.292Z,101767.33
2019-04-28T10:08:17.227Z,101769.55
2019-04-28T10:11:02.942Z,101773.42
2019-04-28T10:13:32.471Z,101777.19
2019-04-28T10:16:01.585Z,101774.98
2019-04-28T10:18:30.702Z,101777.89
2019-04-28T10:21:16.851Z,101781.98
2019-04-28T10:23:46.265Z,101784.30
2019-04-28T10:26:15.398Z,101785.82
2019-04-28T10:28:44.491Z,101784.02
2019-04-28T10:31:13.627Z,101790.38
2019-04-28T10:33:44.836Z,101785.92
2019-04-28T10:36:15.555Z,101789.41
2019-04-28T10:38:46.378Z,101791.67
2019-04-28T10:41:17.149Z,101789.34
2019-04-28T10:44:04.145Z,101792.83
2019-04-28T10:46:49.121Z,101787.45
2019-04-28T10:49:18.435Z,101792.69
2019-04-28T10:51:58.788Z,101795.84
2019-04-28T10:54:18.403Z,101796.70
2019-04-28T10:56:47.540Z,101798.09
2019-04-28T10:59:17.902Z,101807.83
2019-04-28T11:01:47.114Z,101807.58
2019-04-28T11:04:34.142Z,101800.81
2019-04-28T11:07:03.327Z,101804.84
2019-04-28T11:09:36.471Z,101800.00
2019-04-28T11:12:07.259Z,101814.45
2019-04-28T11:14:36.361Z,101811.92
2019-04-28T11:17:05.557Z,101816.28
2019-04-28T11:19:34.704Z,101811.83
2019-04-28T11:22:03.810Z,101813.80
2019-04-28T11:24:32.927Z,101809.02
2019-04-28T11:27:02.052Z,101811.38
2019-04-28T11:29:31.164Z,101816.62
2019-04-28T11:32:00.284Z,101818.54
2019-04-28T11:34:34.175Z,101818.15
2019-04-28T11:37:03.360Z,101825.48
2019-04-28T11:39:34.124Z,101826.45
2019-04-28T11:42:03.314Z,101824.00
2019-04-28T11:44:32.435Z,101834.13
2019-04-28T11:47:03.954Z,101838.80
2019-04-28T11:49:33.110Z,101838.19
2019-04-28T11:52:06.112Z,101841.98
2019-04-28T11:54:35.218Z,101832.78
2019-04-28T11:57:04.350Z,101845.59
2019-04-28T11:59:33.461Z,101844.98
2019-04-28T12:02:02.957Z,101847.90
2019-04-28T12:04:32.127Z,101855.31
2019-04-28T12:07:01.238Z,101849.33
2019-04-28T12:09:40.596Z,101848.64
2019-04-28T12:12:27.524Z,101857.94
2019-04-28T12:15:14.641Z,101859.69
2019-04-28T12:18:23.155Z,101868.36
2019-04-28T12:21:10.808Z,101865.56
2019-04-28T12:23:54.085Z,101869.47
2019-04-28T12:26:22.306Z,101873.38
2019-04-28T12:28:57.220Z,101871.64
2019-04-28T12:31:36.955Z,101874.23
2019-04-28T12:34:08.460Z,101879.02
2019-04-28T12:36:40.987Z,101883.23
2019-04-28T12:39:10.268Z,101881.56
2019-04-28T12:41:42.731Z,101883.23
2019-04-28T12:44:12.394Z,101886.73
2019-04-28T12:46:49.864Z,101882.91
2019-04-28T12:49:21.009Z,101889.27
2019-04-28T12:51:50.434Z,101886.73
2019-04-28T12:54:24.909Z,101889.67
2019-04-28T12:57:00.165Z,101888.24
2019-04-28T12:59:43.988Z,101892.53
2019-04-28T13:02:31.276Z,101887.36
2019-04-28T13:05:02.211Z,101880.70
2019-04-28T13:07:36.067Z,101884.59
2019-04-28T13:10:12.356Z,101886.66
2019-04-28T13:13:11.538Z,101894.52
2019-04-28T13:15:45.798Z,101892.00
2019-04-28T13:18:19.406Z,101889.84
2019-04-28T13:20:48.866Z,101900.55
2019-04-28T13:23:19.911Z,101895.88
2019-04-28T13:25:53.292Z,101902.05
2019-04-28T13:28:22.921Z,101900.87
2019-04-28T13:30:52.101Z,101908.48
2019-04-28T13:33:27.589Z,101914.85
2019-04-28T13:35:58.886Z,101911.71
2019-04-28T13:45:10.878Z,101915.82
2019-04-28T13:50:49.042Z,101923.06
2019-04-28T13:53:41.799Z,101922.15
2019-04-28T13:56:10.320Z,101929.66
2019-04-28T14:01:54.140Z,101931.72
2019-04-28T14:04:27.606Z,101939.73
2019-04-28T14:06:57.486Z,101938.45
2019-04-28T14:09:26.622Z,101939.38
2019-04-28T14:11:58.750Z,101944.66
2019-04-28T14:14:27.972Z,101941.62
2019-04-28T14:16:59.967Z,101941.94
2019-04-28T14:19:29.524Z,101944.33
2019-04-28T14:21:58.762Z,101941.70
2019-04-28T14:24:27.896Z,101942.34
2019-04-28T14:26:57.609Z,101949.66
2019-04-28T14:29:25.986Z,101944.00
2019-04-28T14:31:55.190Z,101945.83
2019-04-28T14:34:27.770Z,101946.14
2019-04-28T14:36:59.776Z,101945.75
2019-04-28T14:39:30.687Z,101948.84
2019-04-28T14:42:02.791Z,101949.80
2019-04-28T14:44:33.495Z,101947.77
2019-04-28T14:47:05.841Z,101952.84
2019-04-28T14:49:35.053Z,101953.08
2019-04-28T14:52:04.290Z,101954.27
2019-04-28T14:54:37.528Z,101952.45
2019-04-28T14:57:06.815Z,101954.36
2019-04-28T14:59:40.414Z,101963.43
2019-04-28T15:02:11.160Z,101957.44
2019-04-28T15:05:00.861Z,101953.23
2019-04-28T15:07:47.286Z,101955.53
2019-04-28T15:10:30.785Z,101954.02
2019-04-28T15:13:05.221Z,101955.77
2019-04-28T15:15:34.711Z,101960.14
2019-04-28T15:18:03.952Z,101964.47
2019-04-28T15:20:33.112Z,101961.84
2019-04-28T15:23:05.036Z,101970.44
2019-04-28T15:25:34.351Z,101971.84
2019-04-28T15:28:03.525Z,101982.81
2019-04-28T15:30:33.082Z,101988.78
2019-04-28T15:33:02.154Z,101989.73
2019-04-28T15:35:31.528Z,101994.43
2019-04-28T15:38:01.041Z,101991.91
2019-04-28T15:40:30.233Z,101993.19
2019-04-28T15:42:59.910Z,102000.91
2019-04-28T15:45:29.493Z,101999.16
2019-04-28T15:47:58.654Z,102006.71
2019-04-28T15:50:27.816Z,102004.41
2019-04-28T15:53:11.988Z,102003.69
2019-04-28T15:56:01.751Z,102002.73
2019-04-28T15:58:32.457Z,101997.71
2019-04-28T16:03:49.924Z,102012.53
2019-04-28T16:06:31.417Z,102011.10
2019-04-28T16:09:13.164Z,102017.66
2019-04-28T16:11:42.563Z,102019.17
2019-04-28T16:14:11.684Z,102027.88
2019-04-28T16:16:45.608Z,102040.81
2019-04-28T16:19:14.781Z,102026.48
2019-04-28T16:21:43.899Z,102035.89
2019-04-28T16:24:14.535Z,102038.45
2019-04-28T16:26:43.816Z,102044.49
2019-04-28T16:29:13.354Z,102046.84
2019-04-28T16:31:42.483Z,102044.00
2019-04-28T16:34:11.732Z,102052.66
2019-04-28T16:36:40.932Z,102047.66
2019-04-28T16:39:10.349Z,102047.11
2019-04-28T16:41:47.164Z,102060.17
2019-04-28T16:44:19.389Z,102056.84
2019-04-28T16:46:48.708Z,102058.74
2019-04-28T16:49:17.909Z,102061.16
2019-04-28T16:51:47.457Z,102062.11
2019-04-28T16:54:16.589Z,102071.16
2019-04-28T16:56:53.522Z,102071.63
2019-04-28T16:59:36.095Z,102076.16
2019-04-28T17:02:06.956Z,102073.53
2019-04-28T17:04:36.408Z,102073.20
2019-04-28T17:07:05.939Z,102079.30
2019-04-28T17:09:35.190Z,102084.98
2019-04-28T17:12:04.427Z,102082.53
2019-04-28T17:14:33.634Z,102086.29
2019-04-28T17:17:02.956Z,102089.27
2019-04-28T17:19:32.302Z,102088.47
2019-04-28T17:22:03.344Z,102096.23
2019-04-28T17:24:32.643Z,102099.37
2019-04-28T17:27:01.747Z,102096.73
2019-04-28T17:29:31.418Z,102094.98
2019-04-28T17:32:00.766Z,102097.58
2019-04-28T17:34:33.398Z,102093.86
2019-04-28T17:37:05.789Z,102091.02
2019-04-28T17:39:36.468Z,102093.44
2019-04-28T17:42:09.758Z,102093.19
2019-04-28T17:44:42.188Z,102100.02
2019-04-28T17:47:19.064Z,102105.21
2019-04-28T17:52:44.911Z,102105.40
2019-04-28T17:55:14.082Z,102109.89
2019-04-28T17:57:43.206Z,102113.69
2019-04-28T18:00:16.571Z,102113.14
2019-04-28T18:03:21.373Z,102122.45
2019-04-28T18:06:17.612Z,102118.94
2019-04-28T18:08:39.688Z,102127.20
2019-04-28T18:11:08.075Z,102125.41
2019-04-28T18:13:37.235Z,102121.36
2019-04-28T18:16:07.989Z,102121.79
2019-04-28T18:18:44.721Z,102128.11
2019-04-28T18:21:13.970Z,102130.41
2019-04-28T18:23:43.244Z,102138.00
2019-04-28T18:26:16.329Z,102137.86
2019-04-28T18:29:00.737Z,102138.66
2019-04-28T18:31:33.936Z,102146.37
2019-04-28T18:34:22.837Z,102153.27
2019-04-28T18:39:54.633Z,102152.94
2019-04-28T18:42:31.077Z,102165.30
2019-04-28T18:45:00.678Z,102176.77
2019-04-28T18:47:29.812Z,102180.48
2019-04-28T18:49:58.897Z,102185.48
2019-04-28T18:52:28.032Z,102181.43
2019-04-28T18:54:57.151Z,102173.47
2019-04-28T18:57:26.264Z,102182.66
2019-04-28T18:59:55.464Z,102178.95
2019-04-28T19:02:26.225Z,102183.39
2019-04-28T19:04:55.407Z,102190.71
2019-04-28T19:07:44.310Z,102189.03
2019-04-28T19:10:31.599Z,102194.56
2019-04-28T19:13:17.277Z,102192.09
2019-04-28T19:16:05.883Z,102191.42
2019-04-28T19:18:39.773Z,102198.91
2019-04-28T19:21:09.207Z,102202.75
2019-04-28T19:23:38.283Z,102205.14
2019-04-28T19:26:07.406Z,102214.72
2019-04-28T19:28:36.528Z,102215.79
2019-04-28T19:31:05.787Z,102223.08
2019-04-28T19:33:34.913Z,102229.54
2019-04-28T19:36:04.205Z,102241.03
2019-04-28T19:38:33.333Z,102252.26
2019-04-28T19:41:02.463Z,102249.41
2019-04-28T19:43:31.577Z,102254.89
2019-04-28T19:46:02.334Z,102252.84
2019-04-28T19:48:31.468Z,102257.79
2019-04-28T19:51:00.578Z,102260.75
2019-04-28T19:53:31.816Z,102258.59
2019-04-28T19:56:02.535Z,102259.47
2019-04-28T19:58:39.206Z,102261.22
2019-04-28T20:01:12.874Z,102263.98
2019-04-28T20:03:42.318Z,102260.53
2019-04-28T20:06:11.436Z,102261.52
2019-04-28T20:08:40.569Z,102268.03
2019-04-28T20:11:09.682Z,102267.30
2019-04-28T20:13:38.796Z,102266.19
2019-04-28T20:16:07.990Z,102273.98
2019-04-28T20:18:37.101Z,102270.98
2019-04-28T20:21:06.218Z,102279.73
2019-04-28T20:23:35.346Z,102282.66
2019-04-28T20:26:04.597Z,102280.66
2019-04-28T20:28:33.711Z,102287.50
2019-04-28T20:31:02.851Z,102287.55
2019-04-28T20:33:31.978Z,102281.39
2019-04-28T20:36:11.702Z,102273.02
2019-04-28T20:38:40.818Z,102279.86
2019-04-28T20:41:17.253Z,102282.30
2019-04-28T20:43:46.365Z,102279.31
2019-04-28T20:46:15.474Z,102282.30
2019-04-28T20:48:44.596Z,102286.55
2019-04-28T20:51:13.707Z,102287.77
2019-04-28T20:53:42.816Z,102290.56
2019-04-28T20:56:11.941Z,102291.13
2019-04-28T20:58:41.056Z,102296.98
2019-04-28T21:01:10.176Z,102292.64
2019-04-28T21:03:39.299Z,102300.05
2019-04-28T21:06:08.405Z,102310.61
2019-04-28T21:08:37.517Z,102314.33
2019-04-28T21:11:06.632Z,102315.11
2019-04-28T21:13:35.744Z,102319.29
2019-04-28T21:16:04.852Z,102315.09
2019-04-28T21:18:33.972Z,102324.14
2019-04-28T21:21:03.080Z,102326.09
2019-04-28T21:23:32.187Z,102320.81
2019-04-28T21:26:01.309Z,102328.05
2019-04-28T21:28:30.417Z,102329.95
2019-04-28T21:30:59.524Z,102331.44
2019-04-28T21:33:29.001Z,102332.84
2019-04-28T21:35:58.112Z,102335.53
2019-04-28T21:38:27.229Z,102335.63
2019-04-28T21:40:56.519Z,102339.75
2019-04-28T21:43:34.127Z,102346.56
2019-04-28T21:46:10.656Z,102356.23
2019-04-28T21:48:50.356Z,102348.73
2019-04-28T21:51:19.477Z,102350.72
2019-04-28T21:53:48.589Z,102344.23
2019-04-28T21:56:17.697Z,102350.16
2019-04-28T21:58:46.815Z,102342.70
2019-04-28T22:01:18.336Z,102346.39
2019-04-28T22:03:47.438Z,102343.88
2019-04-28T22:06:16.563Z,102349.85
2019-04-28T22:08:45.676Z,102348.34
2019-04-28T22:11:14.786Z,102348.94
2019-04-28T22:13:43.908Z,102348.55
2019-04-28T22:16:13.019Z,102353.09
2019-04-28T22:18:42.142Z,102354.89
2019-04-28T22:21:11.255Z,102356.27
2019-04-28T22:23:57.154Z,102358.95
2019-04-28T22:26:44.144Z,102361.38
2019-04-28T22:29:14.078Z,102359.05
2019-04-28T22:31:42.608Z,102358.37
2019-04-28T22:34:13.021Z,102362.05
2019-04-28T22:36:43.562Z,102357.72
2019-04-28T22:39:12.666Z,102365.91
2019-04-28T22:41:42.160Z,102364.65
2019-04-28T22:44:11.278Z,102369.17
2019-04-28T22:46:40.388Z,102367.86
2019-04-28T22:49:09.516Z,102372.81
2019-04-28T22:51:38.624Z,102374.64
2019-04-28T22:54:21.421Z,102374.26
2019-04-28T22:56:52.167Z,102374.30
2019-04-28T22:59:25.801Z,102383.78
2019-04-28T23:01:59.794Z,102379.88
2019-04-28T23:04:42.839Z,102388.41
2019-04-28T23:07:31.303Z,102385.34
2019-04-28T23:10:00.480Z,102391.27
2019-04-28T23:12:29.592Z,102391.83
2019-04-28T23:14:58.714Z,102397.81
2019-04-28T23:17:27.837Z,102400.16
2019-04-28T23:19:56.943Z,102395.36
2019-04-28T23:22:30.648Z,102402.19
2019-04-28T23:24:59.759Z,102410.72
2019-04-28T23:27:28.876Z,102401.34
2019-04-28T23:29:57.993Z,102402.22
2019-04-28T23:32:27.101Z,102405.81
2019-04-28T23:34:56.212Z,102408.92
2019-04-28T23:37:25.335Z,102406.73
2019-04-28T23:39:54.443Z,102400.64
2019-04-28T23:42:30.944Z,102399.45
2019-04-28T23:45:00.054Z,102405.42
2019-04-28T23:47:29.164Z,102401.12
2019-04-28T23:49:58.290Z,102398.98
2019-04-28T23:52:29.039Z,102399.53
2019-04-28T23:54:59.782Z,102396.97
2019-04-28T23:57:28.908Z,102401.04
2019-04-28T23:59:58.016Z,102396.57
